»·PEaware :: N1CE KPOC-KSMO

N1CE :: KPOC-KSMO

FLIGHT INFORMATION

Flight Status: Arrived
Operator: Privately registered:
United States
More flights under this callsign
Pilot: Gulfstream EFTP (43458)
Aircraft: CESSNA 172 SKYHAWK
(C172)
More flights by this aircraft type
Origin: KPOC Brackett
United States
Destination: KSMO Santa Monica Mun
United States
More flights between these airports :: More routes between these airports
Route: PRADO V16 PDZ V186 DARTS
File this flight plan on PilotEdge
Remarks:
Altitude:
(Current/Filed)
6,000ft
Speed:
(Current/Filed)
115kts
Departed: 24-May-23 12:39 PM
Arrived: 24-May-23 01:05 PM
Distance/Time
Traveled:
34nm/0:25
Distance/Time
To Go:
Arrived

Flight Plot

Page will automatically refresh every two minutes.


Map Options




Map Legend


Flown Route
Filed Route
Departure Airport
Arrival Airport
Navaid (VOR, NDB)
Fix

Horizontal Profiles

Position Reports

Time Latitude Longitude Heading Altitude Ground
Speed
24-May-23 12:09 34.092920 -117.783575 114 990ft 0kts
24-May-23 12:10 34.092920 -117.783575 114 990ft 0kts
24-May-23 12:11 34.092920 -117.783575 114 990ft 0kts
24-May-23 12:12 34.092920 -117.783575 114 990ft 0kts
24-May-23 12:13 34.092920 -117.783575 114 990ft 0kts
24-May-23 12:14 34.092920 -117.783575 114 990ft 0kts
24-May-23 12:15 34.092920 -117.783575 114 990ft 0kts
24-May-23 12:16 34.092920 -117.783575 114 990ft 0kts
24-May-23 12:17 34.092920 -117.783575 114 990ft 0kts
24-May-23 12:18 34.092920 -117.783575 114 990ft 0kts
24-May-23 12:19 34.092920 -117.783575 114 990ft 0kts
24-May-23 12:20 34.092920 -117.783575 114 990ft 0kts
24-May-23 12:21 34.092920 -117.783575 114 990ft 0kts
24-May-23 12:22 34.092920 -117.783575 114 990ft 0kts
24-May-23 12:23 34.092920 -117.783575 114 990ft 0kts
24-May-23 12:24 34.092920 -117.783575 114 990ft 0kts
24-May-23 12:25 34.092920 -117.783575 114 990ft 0kts
24-May-23 12:26 34.092920 -117.783575 114 990ft 0kts
24-May-23 12:27 34.092920 -117.783575 114 990ft 0kts
24-May-23 12:28 34.092920 -117.783575 114 990ft 0kts
24-May-23 12:29 34.092920 -117.783575 114 990ft 0kts
24-May-23 12:30 34.092920 -117.783575 114 990ft 0kts
24-May-23 12:31 34.092920 -117.783575 114 990ft 0kts
24-May-23 12:32 34.092920 -117.783575 114 990ft 0kts
24-May-23 12:33 34.092920 -117.783575 114 990ft 0kts
24-May-23 12:34 34.092526 -117.781502 92 995ft 13kts
24-May-23 12:35 34.092255 -117.775538 93 1005ft 21kts
24-May-23 12:36 34.092242 -117.775050 93 1006ft 0kts
24-May-23 12:37 34.092229 -117.774966 107 1006ft 3kts
24-May-23 12:38 34.092365 -117.785786 271 1137ft 76kts
24-May-23 12:39 34.084766 -117.803212 151 1817ft 87kts
24-May-23 12:40 34.065795 -117.788803 177 2539ft 76kts
24-May-23 12:41 34.044304 -117.786804 183 3167ft 77kts
24-May-23 12:42 34.026228 -117.792440 286 3672ft 87kts
24-May-23 12:43 34.035180 -117.816825 282 4314ft 78kts
24-May-23 12:44 34.042004 -117.842671 279 4801ft 86kts
24-May-23 12:45 34.049005 -117.869691 277 5333ft 83kts
24-May-23 12:46 34.056728 -117.896893 280 5793ft 87kts
24-May-23 12:47 34.064765 -117.926815 279 5980ft 103kts
24-May-23 12:48 34.076306 -117.962388 284 5921ft 119kts
24-May-23 12:49 34.085613 -118.000290 284 5949ft 119kts
24-May-23 12:50 34.095723 -118.038747 279 5923ft 121kts
24-May-23 12:51 34.106375 -118.077767 282 5901ft 122kts
24-May-23 12:52 34.117407 -118.116149 284 5911ft 120kts
24-May-23 12:53 34.128200 -118.153416 280 5808ft 118kts
24-May-23 12:54 34.137706 -118.190386 284 5423ft 114kts
24-May-23 12:55 34.144701 -118.228219 293 4964ft 117kts
24-May-23 12:56 34.152462 -118.265816 266 4581ft 119kts
24-May-23 12:57 34.132250 -118.298277 240 4057ft 117kts
24-May-23 12:58 34.114057 -118.332405 238 3450ft 120kts
24-May-23 12:59 34.091575 -118.361264 226 2705ft 119kts
24-May-23 13:00 34.069342 -118.389008 223 1789ft 109kts
24-May-23 13:01 34.050594 -118.410396 228 1117ft 79kts
24-May-23 13:02 34.034675 -118.428826 229 726ft 80kts
24-May-23 13:03 34.020075 -118.446249 227 212ft 64kts
24-May-23 13:04 34.014950 -118.453213 317 135ft 0kts
24-May-23 13:05 34.016169 -118.452212 17 139ft 13kts
24-May-23 13:06 34.016524 -118.452279 321 141ft 0kts
24-May-23 13:07 34.016524 -118.452279 321 141ft 0kts
24-May-23 13:08 34.016524 -118.452279 321 141ft 0kts
24-May-23 13:09 34.016524 -118.452279 321 141ft 0kts
24-May-23 13:10 34.016524 -118.452279 321 141ft 0kts
24-May-23 13:11 34.016524 -118.452279 321 141ft 0kts
24-May-23 13:12 34.016524 -118.452279 321 141ft 0kts
24-May-23 13:13 34.016524 -118.452279 321 141ft 0kts
24-May-23 13:14 34.016524 -118.452279 321 141ft 0kts
24-May-23 13:15 34.016524 -118.452279 321 141ft 0kts
24-May-23 13:16 34.016524 -118.452279 321 141ft 0kts
24-May-23 13:17 34.016524 -118.452279 321 141ft 0kts
24-May-23 13:18 34.016524 -118.452279 321 141ft 0kts

Navigation Log

Ident Type
Flight plan parsing failed, navigation log unavailable